sensor_id;sensor_type;location;lat;lon;timestamp;P1;durP1;ratioP1;P2;durP2;ratioP2
52170;SDS011;38689;47.552;18.820;2023-06-22T09:10:30;7.32;;;3.90;;
52170;SDS011;38689;47.552;18.820;2023-06-22T10:17:47;8.57;;;4.57;;
52170;SDS011;38689;47.552;18.820;2023-06-22T10:20:35;8.40;;;4.62;;
52170;SDS011;38689;47.552;18.820;2023-06-22T10:23:01;7.72;;;4.75;;
52170;SDS011;38689;47.552;18.820;2023-06-22T10:25:27;8.57;;;4.47;;
52170;SDS011;38689;47.552;18.820;2023-06-22T10:27:54;9.27;;;4.25;;
52170;SDS011;38689;47.552;18.820;2023-06-22T10:30:21;8.43;;;4.80;;
52170;SDS011;38689;47.552;18.820;2023-06-22T10:32:47;8.27;;;4.72;;
52170;SDS011;38689;47.552;18.820;2023-06-22T10:35:14;9.20;;;4.78;;
52170;SDS011;38689;47.552;18.820;2023-06-22T10:37:43;7.15;;;4.35;;
52170;SDS011;38689;47.552;18.820;2023-06-22T10:40:13;12.20;;;5.03;;
52170;SDS011;38689;47.552;18.820;2023-06-22T10:43:19;9.15;;;4.60;;
52170;SDS011;38689;47.552;18.820;2023-06-22T10:45:46;8.15;;;4.60;;
52170;SDS011;38689;47.552;18.820;2023-06-22T10:48:32;7.37;;;4.55;;
52170;SDS011;38689;47.552;18.820;2023-06-22T10:50:58;6.95;;;4.50;;
52170;SDS011;38689;47.552;18.820;2023-06-22T10:53:25;8.63;;;4.80;;
52170;SDS011;38689;47.552;18.820;2023-06-22T10:55:52;7.43;;;4.50;;
52170;SDS011;38689;47.552;18.820;2023-06-22T10:58:19;7.95;;;4.53;;
52170;SDS011;38689;47.552;18.820;2023-06-22T11:00:45;6.68;;;4.40;;
52170;SDS011;38689;47.552;18.820;2023-06-22T11:03:12;10.02;;;4.50;;
52170;SDS011;38689;47.552;18.820;2023-06-22T11:05:41;8.40;;;4.40;;
52170;SDS011;38689;47.552;18.820;2023-06-22T11:08:08;7.10;;;4.47;;
52170;SDS011;38689;47.552;18.820;2023-06-22T11:10:35;10.68;;;4.87;;
52170;SDS011;38689;47.552;18.820;2023-06-22T11:13:02;7.90;;;4.65;;
52170;SDS011;38689;47.552;18.820;2023-06-22T11:15:29;11.30;;;4.80;;
52170;SDS011;38689;47.552;18.820;2023-06-22T11:17:56;10.40;;;4.70;;
52170;SDS011;38689;47.552;18.820;2023-06-22T11:20:23;7.75;;;4.60;;
52170;SDS011;38689;47.552;18.820;2023-06-22T11:22:50;9.43;;;4.90;;
52170;SDS011;38689;47.552;18.820;2023-06-22T11:25:17;7.80;;;4.60;;
52170;SDS011;38689;47.552;18.820;2023-06-22T11:27:43;7.65;;;4.47;;
52170;SDS011;38689;47.552;18.820;2023-06-22T11:30:09;7.60;;;4.62;;
52170;SDS011;38689;47.552;18.820;2023-06-22T11:32:35;7.22;;;3.90;;
52170;SDS011;38689;47.552;18.820;2023-06-22T11:35:01;8.95;;;4.20;;
52170;SDS011;38689;47.552;18.820;2023-06-22T11:37:27;6.65;;;3.95;;
52170;SDS011;38689;47.552;18.820;2023-06-22T11:39:54;6.43;;;4.30;;
52170;SDS011;38689;47.552;18.820;2023-06-22T11:42:20;7.22;;;3.90;;
52170;SDS011;38689;47.552;18.820;2023-06-22T11:44:49;7.07;;;4.10;;
52170;SDS011;38689;47.552;18.820;2023-06-22T11:47:15;10.05;;;4.90;;
52170;SDS011;38689;47.552;18.820;2023-06-22T11:49:41;10.68;;;4.70;;
52170;SDS011;38689;47.552;18.820;2023-06-22T11:52:07;11.05;;;4.65;;
52170;SDS011;38689;47.552;18.820;2023-06-22T11:54:33;8.18;;;4.40;;
52170;SDS011;38689;47.552;18.820;2023-06-22T11:56:59;7.80;;;4.47;;
52170;SDS011;38689;47.552;18.820;2023-06-22T11:59:25;9.77;;;4.50;;
52170;SDS011;38689;47.552;18.820;2023-06-22T12:01:51;7.78;;;4.85;;
52170;SDS011;38689;47.552;18.820;2023-06-22T12:04:17;9.48;;;4.97;;
52170;SDS011;38689;47.552;18.820;2023-06-22T12:06:44;9.77;;;4.70;;
52170;SDS011;38689;47.552;18.820;2023-06-22T12:09:10;7.80;;;4.47;;
52170;SDS011;38689;47.552;18.820;2023-06-22T12:11:36;9.20;;;4.87;;
52170;SDS011;38689;47.552;18.820;2023-06-22T12:14:02;8.55;;;4.90;;
52170;SDS011;38689;47.552;18.820;2023-06-22T12:16:28;10.73;;;4.90;;
52170;SDS011;38689;47.552;18.820;2023-06-22T12:18:54;8.27;;;4.85;;
52170;SDS011;38689;47.552;18.820;2023-06-22T12:21:20;7.75;;;5.20;;
52170;SDS011;38689;47.552;18.820;2023-06-22T12:23:46;8.15;;;5.03;;
52170;SDS011;38689;47.552;18.820;2023-06-22T12:26:12;8.85;;;5.45;;
52170;SDS011;38689;47.552;18.820;2023-06-22T12:28:38;9.70;;;5.32;;
52170;SDS011;38689;47.552;18.820;2023-06-22T12:31:04;9.63;;;5.40;;
52170;SDS011;38689;47.552;18.820;2023-06-22T12:33:30;8.98;;;5.40;;
52170;SDS011;38689;47.552;18.820;2023-06-22T12:35:56;7.93;;;4.80;;
52170;SDS011;38689;47.552;18.820;2023-06-22T12:38:23;10.98;;;4.62;;
52170;SDS011;38689;47.552;18.820;2023-06-22T12:40:51;9.38;;;4.68;;
52170;SDS011;38689;47.552;18.820;2023-06-22T12:43:18;10.45;;;5.07;;
52170;SDS011;38689;47.552;18.820;2023-06-22T12:45:44;8.52;;;4.82;;
52170;SDS011;38689;47.552;18.820;2023-06-22T12:48:10;7.85;;;4.53;;
52170;SDS011;38689;47.552;18.820;2023-06-22T12:50:36;9.32;;;4.60;;
52170;SDS011;38689;47.552;18.820;2023-06-22T12:53:02;8.27;;;4.53;;
52170;SDS011;38689;47.552;18.820;2023-06-22T12:55:29;7.30;;;4.22;;
52170;SDS011;38689;47.552;18.820;2023-06-22T12:57:55;6.97;;;4.15;;
52170;SDS011;38689;47.552;18.820;2023-06-22T13:00:22;7.97;;;4.80;;
52170;SDS011;38689;47.552;18.820;2023-06-22T13:02:48;9.60;;;4.43;;
52170;SDS011;38689;47.552;18.820;2023-06-22T13:05:14;7.35;;;4.25;;
52170;SDS011;38689;47.552;18.820;2023-06-22T13:07:40;9.23;;;4.60;;
52170;SDS011;38689;47.552;18.820;2023-06-22T13:10:08;11.95;;;4.97;;
52170;SDS011;38689;47.552;18.820;2023-06-22T13:12:34;5.62;;;3.90;;
52170;SDS011;38689;47.552;18.820;2023-06-22T13:15:00;10.02;;;3.72;;
52170;SDS011;38689;47.552;18.820;2023-06-22T13:17:28;7.82;;;3.80;;
52170;SDS011;38689;47.552;18.820;2023-06-22T13:19:54;9.13;;;3.92;;
52170;SDS011;38689;47.552;18.820;2023-06-22T13:22:27;7.93;;;4.65;;
52170;SDS011;38689;47.552;18.820;2023-06-22T13:25:05;8.60;;;4.30;;
52170;SDS011;38689;47.552;18.820;2023-06-22T13:27:32;8.68;;;4.40;;
52170;SDS011;38689;47.552;18.820;2023-06-22T13:29:58;10.25;;;4.80;;
52170;SDS011;38689;47.552;18.820;2023-06-22T13:32:24;7.65;;;4.12;;
52170;SDS011;38689;47.552;18.820;2023-06-22T13:34:50;9.02;;;4.78;;
52170;SDS011;38689;47.552;18.820;2023-06-22T13:37:17;9.40;;;4.85;;
52170;SDS011;38689;47.552;18.820;2023-06-22T13:39:44;8.18;;;5.25;;
52170;SDS011;38689;47.552;18.820;2023-06-22T13:42:10;9.80;;;5.72;;
52170;SDS011;38689;47.552;18.820;2023-06-22T13:44:36;8.88;;;5.00;;
52170;SDS011;38689;47.552;18.820;2023-06-22T13:47:02;8.90;;;5.40;;
52170;SDS011;38689;47.552;18.820;2023-06-22T13:49:28;10.52;;;5.10;;
52170;SDS011;38689;47.552;18.820;2023-06-22T13:51:54;8.90;;;5.43;;
52170;SDS011;38689;47.552;18.820;2023-06-22T13:54:20;10.52;;;5.47;;
52170;SDS011;38689;47.552;18.820;2023-06-22T13:56:47;8.93;;;5.20;;
52170;SDS011;38689;47.552;18.820;2023-06-22T13:59:13;10.40;;;5.40;;
52170;SDS011;38689;47.552;18.820;2023-06-22T14:01:39;9.10;;;5.10;;
52170;SDS011;38689;47.552;18.820;2023-06-22T14:04:05;10.07;;;5.40;;
52170;SDS011;38689;47.552;18.820;2023-06-22T14:06:31;10.98;;;5.85;;
52170;SDS011;38689;47.552;18.820;2023-06-22T14:08:57;10.98;;;5.62;;
52170;SDS011;38689;47.552;18.820;2023-06-22T14:11:24;9.80;;;5.32;;
52170;SDS011;38689;47.552;18.820;2023-06-22T14:13:50;8.18;;;5.30;;
52170;SDS011;38689;47.552;18.820;2023-06-22T14:16:16;8.73;;;5.25;;
52170;SDS011;38689;47.552;18.820;2023-06-22T14:18:42;10.65;;;5.40;;
52170;SDS011;38689;47.552;18.820;2023-06-22T14:21:08;17.33;;;5.57;;
52170;SDS011;38689;47.552;18.820;2023-06-22T14:23:34;9.20;;;5.72;;
52170;SDS011;38689;47.552;18.820;2023-06-22T14:26:00;10.25;;;5.93;;
52170;SDS011;38689;47.552;18.820;2023-06-22T14:28:26;9.65;;;6.05;;
52170;SDS011;38689;47.552;18.820;2023-06-22T14:30:52;13.00;;;5.68;;
52170;SDS011;38689;47.552;18.820;2023-06-22T14:33:18;10.32;;;5.53;;
52170;SDS011;38689;47.552;18.820;2023-06-22T14:35:44;10.55;;;5.50;;
52170;SDS011;38689;47.552;18.820;2023-06-22T14:38:10;9.45;;;5.55;;
52170;SDS011;38689;47.552;18.820;2023-06-22T14:40:36;10.90;;;6.15;;
52170;SDS011;38689;47.552;18.820;2023-06-22T14:43:02;9.68;;;5.30;;
52170;SDS011;38689;47.552;18.820;2023-06-22T14:45:28;11.35;;;6.53;;
52170;SDS011;38689;47.552;18.820;2023-06-22T14:47:54;10.88;;;5.47;;
52170;SDS011;38689;47.552;18.820;2023-06-22T14:50:20;10.35;;;5.90;;
52170;SDS011;38689;47.552;18.820;2023-06-22T14:52:46;11.00;;;6.30;;
52170;SDS011;38689;47.552;18.820;2023-06-22T14:55:13;9.95;;;5.72;;
52170;SDS011;38689;47.552;18.820;2023-06-22T14:57:39;10.93;;;5.90;;
52170;SDS011;38689;47.552;18.820;2023-06-22T15:00:05;9.90;;;6.00;;
52170;SDS011;38689;47.552;18.820;2023-06-22T15:02:32;9.07;;;5.55;;
52170;SDS011;38689;47.552;18.820;2023-06-22T15:04:58;9.15;;;5.62;;
52170;SDS011;38689;47.552;18.820;2023-06-22T15:07:24;7.87;;;5.45;;
52170;SDS011;38689;47.552;18.820;2023-06-22T15:09:50;12.80;;;6.00;;
52170;SDS011;38689;47.552;18.820;2023-06-22T15:12:16;8.73;;;5.35;;
52170;SDS011;38689;47.552;18.820;2023-06-22T15:14:42;9.15;;;5.82;;
52170;SDS011;38689;47.552;18.820;2023-06-22T15:17:08;8.07;;;5.40;;
52170;SDS011;38689;47.552;18.820;2023-06-22T15:19:38;10.65;;;5.78;;
52170;SDS011;38689;47.552;18.820;2023-06-22T15:22:04;11.55;;;5.80;;
52170;SDS011;38689;47.552;18.820;2023-06-22T15:24:31;9.30;;;5.53;;
52170;SDS011;38689;47.552;18.820;2023-06-22T15:26:57;11.15;;;5.60;;
52170;SDS011;38689;47.552;18.820;2023-06-22T15:29:24;9.40;;;5.32;;
52170;SDS011;38689;47.552;18.820;2023-06-22T15:31:51;10.63;;;5.82;;
52170;SDS011;38689;47.552;18.820;2023-06-22T15:34:17;9.55;;;5.70;;
52170;SDS011;38689;47.552;18.820;2023-06-22T15:36:50;8.68;;;6.00;;
52170;SDS011;38689;47.552;18.820;2023-06-22T15:39:15;13.15;;;6.30;;
52170;SDS011;38689;47.552;18.820;2023-06-22T15:41:42;11.32;;;5.90;;
52170;SDS011;38689;47.552;18.820;2023-06-22T15:44:08;11.00;;;5.78;;
52170;SDS011;38689;47.552;18.820;2023-06-22T15:46:34;9.27;;;5.40;;
52170;SDS011;38689;47.552;18.820;2023-06-22T15:49:00;8.40;;;5.40;;
52170;SDS011;38689;47.552;18.820;2023-06-22T15:51:26;8.88;;;5.60;;
52170;SDS011;38689;47.552;18.820;2023-06-22T15:53:54;8.93;;;5.60;;
52170;SDS011;38689;47.552;18.820;2023-06-22T15:56:20;9.85;;;6.12;;
52170;SDS011;38689;47.552;18.820;2023-06-22T15:58:46;11.23;;;5.78;;
52170;SDS011;38689;47.552;18.820;2023-06-22T16:01:12;10.38;;;5.62;;
52170;SDS011;38689;47.552;18.820;2023-06-22T16:03:38;9.70;;;5.87;;
52170;SDS011;38689;47.552;18.820;2023-06-22T16:06:04;10.07;;;5.82;;
52170;SDS011;38689;47.552;18.820;2023-06-22T16:08:30;8.90;;;5.32;;
52170;SDS011;38689;47.552;18.820;2023-06-22T16:10:59;8.98;;;5.32;;
52170;SDS011;38689;47.552;18.820;2023-06-22T16:13:25;9.07;;;5.40;;
52170;SDS011;38689;47.552;18.820;2023-06-22T16:15:51;7.87;;;5.15;;
52170;SDS011;38689;47.552;18.820;2023-06-22T16:18:17;10.40;;;5.53;;
52170;SDS011;38689;47.552;18.820;2023-06-22T16:20:43;8.23;;;5.32;;
52170;SDS011;38689;47.552;18.820;2023-06-22T16:23:11;6.80;;;5.07;;
52170;SDS011;38689;47.552;18.820;2023-06-22T16:25:38;8.00;;;5.45;;
52170;SDS011;38689;47.552;18.820;2023-06-22T16:28:04;8.95;;;5.82;;
52170;SDS011;38689;47.552;18.820;2023-06-22T16:30:30;7.85;;;5.57;;
52170;SDS011;38689;47.552;18.820;2023-06-22T16:32:56;10.00;;;5.55;;
52170;SDS011;38689;47.552;18.820;2023-06-22T16:35:27;11.02;;;6.10;;
52170;SDS011;38689;47.552;18.820;2023-06-22T16:37:55;9.98;;;5.68;;
52170;SDS011;38689;47.552;18.820;2023-06-22T16:40:21;10.07;;;5.75;;
52170;SDS011;38689;47.552;18.820;2023-06-22T16:42:48;13.88;;;6.20;;
52170;SDS011;38689;47.552;18.820;2023-06-22T16:45:16;14.65;;;6.05;;
52170;SDS011;38689;47.552;18.820;2023-06-22T16:47:42;9.52;;;5.62;;
52170;SDS011;38689;47.552;18.820;2023-06-22T16:50:09;9.65;;;6.68;;
52170;SDS011;38689;47.552;18.820;2023-06-22T16:52:35;12.05;;;7.47;;
52170;SDS011;38689;47.552;18.820;2023-06-22T16:55:06;11.88;;;7.07;;
52170;SDS011;38689;47.552;18.820;2023-06-22T16:57:35;9.40;;;7.75;;
52170;SDS011;38689;47.552;18.820;2023-06-22T17:00:02;10.40;;;7.30;;
52170;SDS011;38689;47.552;18.820;2023-06-22T17:02:30;13.32;;;7.62;;
52170;SDS011;38689;47.552;18.820;2023-06-22T17:04:57;11.27;;;8.00;;
52170;SDS011;38689;47.552;18.820;2023-06-22T17:07:25;15.85;;;8.27;;
52170;SDS011;38689;47.552;18.820;2023-06-22T17:09:52;13.68;;;8.10;;
52170;SDS011;38689;47.552;18.820;2023-06-22T17:12:19;10.63;;;8.18;;
52170;SDS011;38689;47.552;18.820;2023-06-22T17:14:45;12.63;;;7.70;;
52170;SDS011;38689;47.552;18.820;2023-06-22T17:17:11;10.45;;;7.70;;
52170;SDS011;38689;47.552;18.820;2023-06-22T17:19:41;11.65;;;7.85;;
52170;SDS011;38689;47.552;18.820;2023-06-22T17:22:07;18.00;;;7.90;;
52170;SDS011;38689;47.552;18.820;2023-06-22T17:24:33;11.88;;;7.80;;
52170;SDS011;38689;47.552;18.820;2023-06-22T17:27:00;11.15;;;7.50;;
52170;SDS011;38689;47.552;18.820;2023-06-22T17:29:30;10.52;;;7.57;;
52170;SDS011;38689;47.552;18.820;2023-06-22T17:32:03;10.88;;;7.82;;
52170;SDS011;38689;47.552;18.820;2023-06-22T17:34:30;12.20;;;7.82;;
52170;SDS011;38689;47.552;18.820;2023-06-22T17:36:57;10.13;;;8.02;;
52170;SDS011;38689;47.552;18.820;2023-06-22T17:39:25;11.60;;;7.55;;
52170;SDS011;38689;47.552;18.820;2023-06-22T17:41:52;10.50;;;7.45;;
52170;SDS011;38689;47.552;18.820;2023-06-22T17:46:50;12.43;;;8.05;;
52170;SDS011;38689;47.552;18.820;2023-06-22T17:49:21;10.93;;;7.87;;
52170;SDS011;38689;47.552;18.820;2023-06-22T17:51:50;12.48;;;7.93;;
52170;SDS011;38689;47.552;18.820;2023-06-22T17:54:17;18.20;;;8.63;;
52170;SDS011;38689;47.552;18.820;2023-06-22T17:56:47;19.40;;;8.38;;
52170;SDS011;38689;47.552;18.820;2023-06-22T17:59:19;11.10;;;7.95;;
52170;SDS011;38689;47.552;18.820;2023-06-22T18:01:45;12.25;;;8.32;;
52170;SDS011;38689;47.552;18.820;2023-06-22T18:04:16;11.75;;;8.02;;
52170;SDS011;38689;47.552;18.820;2023-06-22T18:06:45;11.07;;;7.65;;
52170;SDS011;38689;47.552;18.820;2023-06-22T18:09:12;11.48;;;8.00;;
52170;SDS011;38689;47.552;18.820;2023-06-22T18:11:49;13.70;;;8.60;;
52170;SDS011;38689;47.552;18.820;2023-06-22T18:14:17;12.98;;;8.30;;
52170;SDS011;38689;47.552;18.820;2023-06-22T18:16:45;12.20;;;8.10;;
52170;SDS011;38689;47.552;18.820;2023-06-22T18:19:15;14.52;;;8.30;;
52170;SDS011;38689;47.552;18.820;2023-06-22T18:21:46;12.80;;;8.18;;
52170;SDS011;38689;47.552;18.820;2023-06-22T18:24:16;11.60;;;7.78;;
52170;SDS011;38689;47.552;18.820;2023-06-22T18:26:43;12.40;;;8.25;;
52170;SDS011;38689;47.552;18.820;2023-06-22T18:29:09;12.07;;;8.48;;
52170;SDS011;38689;47.552;18.820;2023-06-22T18:31:37;14.60;;;8.40;;
52170;SDS011;38689;47.552;18.820;2023-06-22T18:34:03;10.88;;;8.13;;
52170;SDS011;38689;47.552;18.820;2023-06-22T18:36:34;13.40;;;8.52;;
52170;SDS011;38689;47.552;18.820;2023-06-22T18:39:03;11.05;;;8.23;;
52170;SDS011;38689;47.552;18.820;2023-06-22T18:41:37;16.08;;;8.55;;
52170;SDS011;38689;47.552;18.820;2023-06-22T18:44:10;12.43;;;8.30;;
52170;SDS011;38689;47.552;18.820;2023-06-22T18:46:38;12.45;;;8.63;;
52170;SDS011;38689;47.552;18.820;2023-06-22T18:51:48;11.73;;;7.82;;
52170;SDS011;38689;47.552;18.820;2023-06-22T18:54:18;14.77;;;8.38;;
52170;SDS011;38689;47.552;18.820;2023-06-22T18:59:39;16.27;;;9.00;;
52170;SDS011;38689;47.552;18.820;2023-06-22T19:02:12;11.70;;;8.60;;
52170;SDS011;38689;47.552;18.820;2023-06-22T19:04:40;14.13;;;8.35;;
52170;SDS011;38689;47.552;18.820;2023-06-22T19:07:08;13.98;;;8.40;;
52170;SDS011;38689;47.552;18.820;2023-06-22T19:09:36;12.98;;;8.35;;
52170;SDS011;38689;47.552;18.820;2023-06-22T19:12:21;12.37;;;8.57;;
52170;SDS011;38689;47.552;18.820;2023-06-22T19:15:01;11.80;;;8.27;;
52170;SDS011;38689;47.552;18.820;2023-06-22T19:17:35;13.48;;;8.20;;
52170;SDS011;38689;47.552;18.820;2023-06-22T19:20:02;14.40;;;8.65;;
52170;SDS011;38689;47.552;18.820;2023-06-22T19:25:21;12.98;;;8.07;;
52170;SDS011;38689;47.552;18.820;2023-06-22T19:27:49;13.70;;;8.15;;
52170;SDS011;38689;47.552;18.820;2023-06-22T19:30:20;9.95;;;7.45;;
52170;SDS011;38689;47.552;18.820;2023-06-22T19:32:47;12.65;;;8.00;;
52170;SDS011;38689;47.552;18.820;2023-06-22T19:35:17;13.20;;;8.30;;
52170;SDS011;38689;47.552;18.820;2023-06-22T19:37:47;11.55;;;8.38;;
52170;SDS011;38689;47.552;18.820;2023-06-22T19:40:14;11.95;;;8.43;;
52170;SDS011;38689;47.552;18.820;2023-06-22T19:42:42;12.07;;;8.65;;
52170;SDS011;38689;47.552;18.820;2023-06-22T19:45:09;15.40;;;8.68;;
52170;SDS011;38689;47.552;18.820;2023-06-22T19:47:39;13.07;;;8.15;;
52170;SDS011;38689;47.552;18.820;2023-06-22T19:50:05;14.82;;;8.70;;
52170;SDS011;38689;47.552;18.820;2023-06-22T19:52:35;15.80;;;8.77;;
52170;SDS011;38689;47.552;18.820;2023-06-22T19:55:02;13.32;;;8.40;;
52170;SDS011;38689;47.552;18.820;2023-06-22T19:57:34;12.80;;;9.15;;
52170;SDS011;38689;47.552;18.820;2023-06-22T20:00:01;14.05;;;8.63;;
52170;SDS011;38689;47.552;18.820;2023-06-22T20:02:33;14.77;;;9.07;;
52170;SDS011;38689;47.552;18.820;2023-06-22T20:05:04;10.82;;;8.13;;
52170;SDS011;38689;47.552;18.820;2023-06-22T20:07:34;13.23;;;7.90;;
52170;SDS011;38689;47.552;18.820;2023-06-22T20:10:06;13.48;;;8.30;;
52170;SDS011;38689;47.552;18.820;2023-06-22T20:12:33;14.50;;;8.40;;
52170;SDS011;38689;47.552;18.820;2023-06-22T20:18:01;12.52;;;8.18;;
52170;SDS011;38689;47.552;18.820;2023-06-22T20:20:31;12.20;;;7.57;;
52170;SDS011;38689;47.552;18.820;2023-06-22T20:23:01;14.48;;;7.97;;
52170;SDS011;38689;47.552;18.820;2023-06-22T20:25:29;14.40;;;7.57;;
52170;SDS011;38689;47.552;18.820;2023-06-22T20:28:02;12.40;;;7.70;;
52170;SDS011;38689;47.552;18.820;2023-06-22T20:30:34;10.75;;;7.60;;
52170;SDS011;38689;47.552;18.820;2023-06-22T20:33:01;12.73;;;7.53;;
52170;SDS011;38689;47.552;18.820;2023-06-22T20:35:31;13.15;;;7.70;;
52170;SDS011;38689;47.552;18.820;2023-06-22T20:37:58;9.95;;;7.65;;
52170;SDS011;38689;47.552;18.820;2023-06-22T20:40:24;12.65;;;7.72;;
52170;SDS011;38689;47.552;18.820;2023-06-22T20:42:56;11.93;;;7.70;;
52170;SDS011;38689;47.552;18.820;2023-06-22T20:45:23;10.45;;;7.60;;
52170;SDS011;38689;47.552;18.820;2023-06-22T20:47:51;13.32;;;8.70;;
52170;SDS011;38689;47.552;18.820;2023-06-22T20:50:18;12.65;;;8.10;;
52170;SDS011;38689;47.552;18.820;2023-06-22T20:52:44;11.55;;;7.65;;
52170;SDS011;38689;47.552;18.820;2023-06-22T20:55:12;14.45;;;7.68;;
52170;SDS011;38689;47.552;18.820;2023-06-22T20:57:39;13.77;;;8.52;;
52170;SDS011;38689;47.552;18.820;2023-06-22T21:00:05;11.63;;;8.00;;
52170;SDS011;38689;47.552;18.820;2023-06-22T21:02:32;14.23;;;8.70;;
52170;SDS011;38689;47.552;18.820;2023-06-22T21:04:59;11.55;;;8.27;;
52170;SDS011;38689;47.552;18.820;2023-06-22T21:07:25;14.45;;;9.13;;
52170;SDS011;38689;47.552;18.820;2023-06-22T21:09:51;10.82;;;8.15;;
52170;SDS011;38689;47.552;18.820;2023-06-22T21:12:18;10.45;;;7.95;;
52170;SDS011;38689;47.552;18.820;2023-06-22T21:14:44;13.43;;;8.73;;
52170;SDS011;38689;47.552;18.820;2023-06-22T21:17:10;10.18;;;8.18;;
52170;SDS011;38689;47.552;18.820;2023-06-22T21:19:36;14.82;;;8.98;;
52170;SDS011;38689;47.552;18.820;2023-06-22T21:22:02;13.02;;;8.18;;
52170;SDS011;38689;47.552;18.820;2023-06-22T21:24:28;11.70;;;8.32;;
52170;SDS011;38689;47.552;18.820;2023-06-22T21:26:54;13.85;;;8.80;;
52170;SDS011;38689;47.552;18.820;2023-06-22T21:29:20;12.48;;;8.55;;
52170;SDS011;38689;47.552;18.820;2023-06-22T21:31:46;11.70;;;8.38;;
52170;SDS011;38689;47.552;18.820;2023-06-22T21:34:12;13.10;;;8.70;;
52170;SDS011;38689;47.552;18.820;2023-06-22T21:36:38;13.82;;;8.52;;
52170;SDS011;38689;47.552;18.820;2023-06-22T21:39:04;15.05;;;9.27;;
52170;SDS011;38689;47.552;18.820;2023-06-22T21:41:30;11.27;;;8.85;;
52170;SDS011;38689;47.552;18.820;2023-06-22T21:43:56;14.38;;;9.57;;
52170;SDS011;38689;47.552;18.820;2023-06-22T21:46:22;12.13;;;9.27;;
52170;SDS011;38689;47.552;18.820;2023-06-22T21:48:48;12.80;;;9.88;;
52170;SDS011;38689;47.552;18.820;2023-06-22T21:51:13;13.38;;;10.00;;
52170;SDS011;38689;47.552;18.820;2023-06-22T21:53:40;13.02;;;9.55;;
52170;SDS011;38689;47.552;18.820;2023-06-22T21:56:06;14.27;;;10.05;;
52170;SDS011;38689;47.552;18.820;2023-06-22T21:58:32;15.32;;;10.07;;
52170;SDS011;38689;47.552;18.820;2023-06-22T22:00:57;15.90;;;9.88;;
52170;SDS011;38689;47.552;18.820;2023-06-22T22:03:23;14.52;;;10.15;;
52170;SDS011;38689;47.552;18.820;2023-06-22T22:05:52;14.60;;;9.90;;
52170;SDS011;38689;47.552;18.820;2023-06-22T22:08:19;14.25;;;10.95;;
52170;SDS011;38689;47.552;18.820;2023-06-22T22:10:45;13.85;;;10.77;;
52170;SDS011;38689;47.552;18.820;2023-06-22T22:13:11;13.02;;;10.32;;
52170;SDS011;38689;47.552;18.820;2023-06-22T22:15:39;15.90;;;10.82;;
52170;SDS011;38689;47.552;18.820;2023-06-22T22:18:05;15.25;;;11.30;;
52170;SDS011;38689;47.552;18.820;2023-06-22T22:20:33;15.20;;;10.90;;
52170;SDS011;38689;47.552;18.820;2023-06-22T22:23:00;15.80;;;11.45;;
52170;SDS011;38689;47.552;18.820;2023-06-22T22:25:26;14.07;;;11.00;;
52170;SDS011;38689;47.552;18.820;2023-06-22T22:27:52;14.40;;;11.07;;
52170;SDS011;38689;47.552;18.820;2023-06-22T22:30:18;13.43;;;11.32;;
52170;SDS011;38689;47.552;18.820;2023-06-22T22:32:45;14.82;;;11.70;;
52170;SDS011;38689;47.552;18.820;2023-06-22T22:35:11;13.50;;;11.07;;
52170;SDS011;38689;47.552;18.820;2023-06-22T22:37:42;14.60;;;11.52;;
52170;SDS011;38689;47.552;18.820;2023-06-22T22:40:08;15.35;;;11.68;;
52170;SDS011;38689;47.552;18.820;2023-06-22T22:42:36;13.88;;;11.63;;
52170;SDS011;38689;47.552;18.820;2023-06-22T22:45:02;15.27;;;12.13;;
52170;SDS011;38689;47.552;18.820;2023-06-22T22:47:30;15.57;;;12.10;;
52170;SDS011;38689;47.552;18.820;2023-06-22T22:49:56;15.20;;;11.38;;
52170;SDS011;38689;47.552;18.820;2023-06-22T22:52:22;14.50;;;11.70;;
52170;SDS011;38689;47.552;18.820;2023-06-22T22:54:48;15.43;;;11.48;;
52170;SDS011;38689;47.552;18.820;2023-06-22T22:57:14;15.07;;;12.00;;
52170;SDS011;38689;47.552;18.820;2023-06-22T22:59:40;15.13;;;11.57;;
52170;SDS011;38689;47.552;18.820;2023-06-22T23:02:06;14.20;;;11.70;;
52170;SDS011;38689;47.552;18.820;2023-06-22T23:04:33;14.25;;;11.40;;
52170;SDS011;38689;47.552;18.820;2023-06-22T23:06:59;17.15;;;11.68;;
52170;SDS011;38689;47.552;18.820;2023-06-22T23:09:25;13.65;;;11.52;;
52170;SDS011;38689;47.552;18.820;2023-06-22T23:11:51;17.92;;;12.32;;
52170;SDS011;38689;47.552;18.820;2023-06-22T23:14:18;15.18;;;11.68;;
52170;SDS011;38689;47.552;18.820;2023-06-22T23:16:45;14.07;;;11.75;;
52170;SDS011;38689;47.552;18.820;2023-06-22T23:19:11;14.35;;;11.40;;
52170;SDS011;38689;47.552;18.820;2023-06-22T23:21:37;17.15;;;11.50;;
52170;SDS011;38689;47.552;18.820;2023-06-22T23:24:03;13.30;;;10.82;;
52170;SDS011;38689;47.552;18.820;2023-06-22T23:26:30;16.80;;;12.37;;
52170;SDS011;38689;47.552;18.820;2023-06-22T23:28:56;15.23;;;11.30;;
52170;SDS011;38689;47.552;18.820;2023-06-22T23:31:22;17.42;;;11.77;;
52170;SDS011;38689;47.552;18.820;2023-06-22T23:33:49;14.13;;;11.63;;
52170;SDS011;38689;47.552;18.820;2023-06-22T23:36:15;16.90;;;12.52;;
52170;SDS011;38689;47.552;18.820;2023-06-22T23:38:42;13.73;;;11.43;;
52170;SDS011;38689;47.552;18.820;2023-06-22T23:41:08;14.68;;;12.15;;
52170;SDS011;38689;47.552;18.820;2023-06-22T23:43:37;14.52;;;11.38;;
52170;SDS011;38689;47.552;18.820;2023-06-22T23:46:04;15.23;;;11.15;;
52170;SDS011;38689;47.552;18.820;2023-06-22T23:48:32;16.77;;;11.32;;
52170;SDS011;38689;47.552;18.820;2023-06-22T23:50:57;17.45;;;11.75;;
52170;SDS011;38689;47.552;18.820;2023-06-22T23:53:27;16.08;;;11.10;;
52170;SDS011;38689;47.552;18.820;2023-06-22T23:55:53;14.68;;;11.55;;
52170;SDS011;38689;47.552;18.820;2023-06-22T23:58:23;15.50;;;11.02;;
